LiveATC.Net - Listen to live air traffic control over the Internet! Contact for advertising information

ICAO: KSAN  IATA: SAN   Airport: San Diego International Airport
City: San Diego   State/Province: California
Country: United States   Continent: North America
KSAN METAR Weather: KSAN 090251Z 00000KT 10SM SCT250 24/19 A2994 RMK AO2 SLP140 T02390194 53010
KSAN Flight Activity (FlightAware)
KSAN Airport Info   (AirNav) (iFlightPlanner)
KSAN VFR Sectional Chart   (iFlightPlanner) 
KSAN IFR Low Chart   (iFlightPlanner) 
KSAN Tower
Feed Status: UP   Listeners: 2
Listen right in your browser - requires Flash (in browser, requires Flash)
Click here to listen with your own player (launches your MP3 player)
KSAN Tower Audio Archives
Lindbergh Tower118.300


Unauthorized use prohibited. See Terms of Service

Find LiveATC Audio Streams

Airport/ARTCC Code

(e.g., 124.400, 128.75)
Site-wide search

Browse LiveATC Feeds
LiveATC Coverage Map
Top 50 LiveATC Feeds
Bad Weather Areas

Offer a LiveATC Feed
Press Inquiries

LiveATC on iPhone
LiveATC on Android

Windows Phone
Windows 8/10

LiveATC Mobile
(Mobile browser)

ATC Audio Archives
Interesting Recordings

LiveATC Forums

Home Page
Make a Donation
LiveATC Bookstore

Terms of Use
Privacy Policy

ATC/Radar Sites
U.S. ARTCC Freqs
Canadian Air Freqs


FAA Airport Status
Nat'l Airspace Status
Arrival Demand Charts

Server Software By:

Please make a donation to help us keep growing!